Warrington, United Kingdom
Current Conditions -  °F | °C
As of 12:50 PM on Monday 22 Dec 2014 (Local Time) from EGGP Reporting Station
Scattered Clouds Scattered Clouds  
Wind Chill: 55°   Ceiling: Unl
Heat Index: 55°   Visibility: 6mi
Dew Point: 50°   Wind: 23mph
Humidity: 82%   Direction: 240°WSW
Pressure: 29.83"   Gusts: NA
Location:  53.39°N, 2.59°W
Report Text: EGGP 221250Z 24020KT 9999 FEW025 SCT042 13/10 Q1010
Loading
Personal Weather Stations






























Interactive Weather Map New forecast layout! Learn more

10-Day Weather Forecast

Advertisements
Track Severe Weather on mobile